Terminal Aerodrome Forecast
Issued by NWS Wichita, KS

Home | Current Version | Previous Version | Graphics & Text | Print | Product List | Glossary On
Versions: 1 2 3 4 5 6 7 8 9 10 11 12 13
207
FTUS43 KICT 030910 AAC
TAFICT
TAF AMD
KICT 030910Z 0309/0406 33020G28KT P6SM OVC025
     FM031200 33017G24KT P6SM FEW025 BKN050
     FM031400 33015G23KT P6SM SCT035 BKN100
     FM032300 33010KT P6SM SCT250=

USA.gov is the U.S. government's official web portal to all federal, state and local government web resources and services.